Airfield :
LOGIN :

Register | Disclaimer

   EN    FR    IT 

 










Legend :    VFR   Marginal VFR   IFR   Intensive IFR   Very Intensive IFR
Visi :
Ceiling :
>= 8 km
>= 3000ft
5 to 8 km
1000 to 3000 ft
1500m to 5 km
500 to 1000 ft
800 to 1500m
200 to 500 ft
< 800m
< 200 ft
Symbols :   Thunderstorms  Fog  Heavy snow  Heavy precipitations  Wind > 20 kt
SIGMETs :     Misc.  Thunderstorms  Icing  Turbulence  Mountain Waves  Volcanic Ashes






- Airport Elevation : 53 ft
- IATA code : LBC


EDHL - Lübeck

CURRENT METAR :
  • 151420Z VRB02KT CAVOK 20/15 Q1005

EXPIRED METARs :
  • 151350Z 28003KT 240V330 CAVOK 20/14 Q1005
  • 151320Z 26006KT 230V300 CAVOK 20/14 Q1005
  • 151250Z VRB02KT CAVOK 20/14 Q1005
  • 151220Z 24005KT CAVOK 20/14 Q1005
  • 151150Z 25004KT 210V280 CAVOK 20/15 Q1006

TAF TAF EDHL
Valid from the 15 at 15:00 until the 15 at 21:00 UTC


151400Z 1515/1521 VRB03KT CAVOK
BECMG 1519/1521 3000 BR



MET'MAP, your aeronautical weather chart ! - Copyright ORBIFLY December 2007 - Disclaimer

ORBIFLY MET'MAP TEAM :

Programming & Development : Alexandra Zaïnal
Concept & Development : Baudouin d'Aumeries
Co-Development & Prog : Marc-Olivier Méhu
Technical & hardware support : Manuel Goepfert

Contact : metmap@orbifly.com




SOURCES & CREDITS :

   NOAA